Mt New Conquest — V7GG4 — position and weather

sailwx.info

Track history (hours):
 
Tides and Currents Weather Stations Pressure Air Temp Water Temp Dewpoint Dewpoint Depression Visibility Wind Speed Wind Dir Waves Ship Positions

Mt New Conquest

Last reported at 2016-Sep-29 00:31 UTC. Time now 2016-Sep-29 01:39 UTC.
Position N 10°06' W 079°57'.

Length 228 m; draft 8.1 m.

Type: Tanker. MMSI: 538002089.

Date/timePositionNaut miles runAvg speedWind from/ knotsBaromVisibWave heightAir tempDewpointWater temp
2016-Sep-29 00:31N 10°06' W 079°57'3913.0
2016-Sep-28 21:33N 09°28' W 079°57'0 0.1
2016-Sep-28 19:32N 09°27' W 079°57'0 0.1
2016-Sep-28 16:23N 09°27' W 079°57'0 0.2
2016-Sep-28 15:31N 09°27' W 079°57'12 3.9
2016-Sep-28 12:34N 09°16' W 079°55'25 6.1
2016-Sep-28 08:33N 09°00' W 079°36'13 2.3
2016-Sep-28 03:03N 08°48' W 079°31'0 0.0
2016-Sep-28 02:28N 08°48' W 079°31'0 0.0
2016-Sep-28 01:19N 08°48' W 079°31'0 0.0
2016-Sep-27 23:19N 08°48' W 079°31'0 0.0
2016-Sep-27 19:22N 08°48' W 079°31'0 0.0
2016-Sep-27 14:04N 08°48' W 079°31'0 0.0
2016-Sep-27 13:28N 08°48' W 079°31'0 0.0
2016-Sep-27 10:13N 08°48' W 079°31'0 0.0
2016-Sep-27 00:31N 08°48' W 079°31'0 0.0
2016-Sep-26 20:07N 08°48' W 079°31'0 0.0
2016-Sep-26 19:31N 08°48' W 079°31'0 0.0
2016-Sep-26 15:16N 08°48' W 079°31'0 0.0
2016-Sep-26 13:32N 08°48' W 079°31'1 0.1
2016-Sep-25 21:33N 08°49' W 079°32'0 0.0
2016-Sep-25 16:27N 08°49' W 079°32'0 0.0
2016-Sep-25 15:21N 08°49' W 079°32'0 0.0
2016-Sep-25 12:30N 08°49' W 079°32'0 0.0
2016-Sep-25 10:27N 08°49' W 079°32'0 0.0
2016-Sep-25 09:14N 08°49' W 079°32'0 0.0
2016-Sep-25 07:20N 08°49' W 079°32'0 0.0
2016-Sep-25 04:21N 08°48' W 079°32'0 0.0
2016-Sep-25 00:33N 08°48' W 079°32'3 1.4
2016-Sep-24 22:28N 08°49' W 079°29'9 8.1
2016-Sep-24 21:22N 08°42' W 079°24'2513.6
2016-Sep-24 19:31N 08°17' W 079°22'  
Track history (hours):
 
Tides and Currents Weather Stations Pressure Air Temp Water Temp Dewpoint Dewpoint Depression Visibility Wind Speed Wind Dir Waves Ship Positions

Mt New Conquest

Last reported at 2016-Sep-29 00:31 UTC. Time now 2016-Sep-29 01:39 UTC.
Position N 10°06' W 079°57'.

Length 228 m; draft 8.1 m.

Type: Tanker. MMSI: 538002089.

Date/timePositionNaut miles runAvg speedWind from/ knotsBaromVisibWave heightAir tempDewpointWater temp
2016-Sep-29 00:31N 10°06' W 079°57'3913.0
2016-Sep-28 21:33N 09°28' W 079°57'0 0.1
2016-Sep-28 19:32N 09°27' W 079°57'0 0.1
2016-Sep-28 16:23N 09°27' W 079°57'0 0.2
2016-Sep-28 15:31N 09°27' W 079°57'12 3.9
2016-Sep-28 12:34N 09°16' W 079°55'25 6.1
2016-Sep-28 08:33N 09°00' W 079°36'13 2.3
2016-Sep-28 03:03N 08°48' W 079°31'0 0.0
2016-Sep-28 02:28N 08°48' W 079°31'0 0.0
2016-Sep-28 01:19N 08°48' W 079°31'0 0.0
2016-Sep-27 23:19N 08°48' W 079°31'0 0.0
2016-Sep-27 19:22N 08°48' W 079°31'0 0.0
2016-Sep-27 14:04N 08°48' W 079°31'0 0.0
2016-Sep-27 13:28N 08°48' W 079°31'0 0.0
2016-Sep-27 10:13N 08°48' W 079°31'0 0.0
2016-Sep-27 00:31N 08°48' W 079°31'0 0.0
2016-Sep-26 20:07N 08°48' W 079°31'0 0.0
2016-Sep-26 19:31N 08°48' W 079°31'0 0.0
2016-Sep-26 15:16N 08°48' W 079°31'0 0.0
2016-Sep-26 13:32N 08°48' W 079°31'1 0.1
2016-Sep-25 21:33N 08°49' W 079°32'0 0.0
2016-Sep-25 16:27N 08°49' W 079°32'0 0.0
2016-Sep-25 15:21N 08°49' W 079°32'0 0.0
2016-Sep-25 12:30N 08°49' W 079°32'0 0.0
2016-Sep-25 10:27N 08°49' W 079°32'0 0.0
2016-Sep-25 09:14N 08°49' W 079°32'0 0.0
2016-Sep-25 07:20N 08°49' W 079°32'0 0.0
2016-Sep-25 04:21N 08°48' W 079°32'0 0.0
2016-Sep-25 00:33N 08°48' W 079°32'3 1.4
2016-Sep-24 22:28N 08°49' W 079°29'9 8.1
2016-Sep-24 21:22N 08°42' W 079°24'2513.6
2016-Sep-24 19:31N 08°17' W 079°22'  

Dump ship's entire track history